嘉手納 の空港の天気 - METARとTAF

嘉手納基地 ( RODN / DNA ) - 沖縄県沖縄市
飛行場実況気象(Metar)
観測時間01/24 08:56 JST (01/23 23:56 UTC)
風向・風速静穏 0m/s
視程9650m
天気現象もや
なし
気温21.4℃
湿度92%
気圧1022.7hPa
METARRODN 232356Z 00000KT 6SM BR CLR 21/20 A3018 RMK AO2A SLP227 P0000 60000 T02140200 10214 20138 52014 $
過去の天気等 Google飛行場航空写真 Wunderground天気予報

過去48時間のMETAR

飛行場予報(TAF)
発表時間: 1/24 09:00 JST (1/24 00:00 UTC)
予報対象時間: 24日9時 JST ~ 25日15時 JST
風向・風速不定 3m/s
視程10km以上
全天の4割程度の雲 雲底高度 910m
全天の8割程度の雲 雲底高度 2740m
24日9時 JST ~ 24日11時 JST に一時的に
視程6000m
天気現象もや
25日3時 JST ~ 25日4時 JST に徐々に
風向・風速不定 3m/s
視程6000m
天気現象もや
全天の8割程度の雲 雲底高度 300m
25日10時 JST ~ 25日11時 JST に徐々に
風向・風速不定 3m/s
視程10km以上
天気現象運行に影響にある天気現象が終了
全天の8割程度の雲 雲底高度 910m
TAF RODN 240000Z 2400/2506 VRB06KT 9999 SCT030 BKN090 QNH3015INS
TEMPO 2400/2402 6000 BR
BECMG 2418/2419 VRB06KT 6000 BR BKN010 QNH3013INS
BECMG 2501/2502 VRB06KT 9999 NSW BKN030 QNH3024INS TX25/2407Z TN15/2416Z
日本の空港のMETAR・TAFへのリンク

RJTT 東京国際空港
RJAA 新東京国際空港
RJBB 関西国際空港
RJOO 大阪空港
RJGG 中部国際空港
RJCC 新千歳空港
RJFF 福岡空港
ROAH 那覇空港


RJEC 旭川空港
RJCH 函館空港
RJCK 釧路空港
RJCM 女満別空港
RJCB 帯広空港
RJSA 青森空港
RJSS 仙台空港
RJSK 秋田空港
RJSF 福島空港
RJAH 茨城空港
RJSN 新潟空港
RJNT 富山空港
RJNK 小松飛行場
RJNS 静岡空港
RJOH 美保飛行場
RJOC 出雲空港
RJOB 岡山空港
RJOA 広島空港
RJOI 岩国飛行場
RJOT 高松空港
RJOM 松山空港
RJOK 高知空港
RJFR 北九州空港
RJFT 熊本空港
RJFU 長崎空港
RJFS 佐賀空港
RJFO 大分空港
RJFM 宮崎空港
RJFK 鹿児島空港
ROIG 石垣島空港
RJTY 横田飛行場
ROTM 普天間飛行場
RODN 嘉手納飛行場